sensor_id;sensor_type;location;lat;lon;timestamp;P1;durP1;ratioP1;P2;durP2;ratioP2
54139;SDS011;40046;53.254;5.900;2023-09-07T00:01:08;14.90;;;7.65;;
54139;SDS011;40046;53.254;5.900;2023-09-07T00:03:34;9.20;;;6.13;;
54139;SDS011;40046;53.254;5.900;2023-09-07T00:06:06;9.00;;;7.57;;
54139;SDS011;40046;53.254;5.900;2023-09-07T00:08:32;7.03;;;6.07;;
54139;SDS011;40046;53.254;5.900;2023-09-07T00:11:05;10.27;;;6.55;;
54139;SDS011;40046;53.254;5.900;2023-09-07T00:13:31;8.07;;;5.60;;
54139;SDS011;40046;53.254;5.900;2023-09-07T00:15:58;10.02;;;5.60;;
54139;SDS011;40046;53.254;5.900;2023-09-07T00:18:25;9.50;;;6.20;;
54139;SDS011;40046;53.254;5.900;2023-09-07T00:20:52;8.13;;;4.93;;
54139;SDS011;40046;53.254;5.900;2023-09-07T00:23:18;11.02;;;5.38;;
54139;SDS011;40046;53.254;5.900;2023-09-07T00:25:45;9.45;;;4.40;;
54139;SDS011;40046;53.254;5.900;2023-09-07T00:28:11;6.93;;;5.18;;
54139;SDS011;40046;53.254;5.900;2023-09-07T00:30:37;12.15;;;5.13;;
54139;SDS011;40046;53.254;5.900;2023-09-07T00:33:04;9.48;;;4.90;;
54139;SDS011;40046;53.254;5.900;2023-09-07T00:35:31;6.30;;;4.18;;
54139;SDS011;40046;53.254;5.900;2023-09-07T00:37:57;8.15;;;4.13;;
54139;SDS011;40046;53.254;5.900;2023-09-07T00:40:23;9.63;;;4.45;;
54139;SDS011;40046;53.254;5.900;2023-09-07T00:42:50;6.55;;;4.38;;
54139;SDS011;40046;53.254;5.900;2023-09-07T00:45:16;13.57;;;5.30;;
54139;SDS011;40046;53.254;5.900;2023-09-07T00:47:44;6.90;;;4.25;;
54139;SDS011;40046;53.254;5.900;2023-09-07T00:50:10;6.55;;;4.38;;
54139;SDS011;40046;53.254;5.900;2023-09-07T00:52:44;8.30;;;4.30;;
54139;SDS011;40046;53.254;5.900;2023-09-07T00:55:13;9.40;;;4.20;;
54139;SDS011;40046;53.254;5.900;2023-09-07T00:57:39;5.53;;;4.15;;
54139;SDS011;40046;53.254;5.900;2023-09-07T01:00:07;5.80;;;4.13;;
54139;SDS011;40046;53.254;5.900;2023-09-07T01:02:34;7.05;;;3.75;;
54139;SDS011;40046;53.254;5.900;2023-09-07T01:05:03;5.75;;;4.07;;
54139;SDS011;40046;53.254;5.900;2023-09-07T01:10:00;6.65;;;4.60;;
54139;SDS011;40046;53.254;5.900;2023-09-07T01:12:28;5.68;;;4.97;;
54139;SDS011;40046;53.254;5.900;2023-09-07T01:14:54;7.18;;;4.82;;
54139;SDS011;40046;53.254;5.900;2023-09-07T01:17:21;7.07;;;4.85;;
54139;SDS011;40046;53.254;5.900;2023-09-07T01:19:48;8.63;;;5.00;;
54139;SDS011;40046;53.254;5.900;2023-09-07T01:22:18;8.93;;;5.32;;
54139;SDS011;40046;53.254;5.900;2023-09-07T01:24:45;9.85;;;5.07;;
54139;SDS011;40046;53.254;5.900;2023-09-07T01:27:12;7.75;;;5.10;;
54139;SDS011;40046;53.254;5.900;2023-09-07T01:29:41;7.82;;;4.90;;
54139;SDS011;40046;53.254;5.900;2023-09-07T01:32:07;7.10;;;4.63;;
54139;SDS011;40046;53.254;5.900;2023-09-07T01:34:35;9.43;;;5.70;;
54139;SDS011;40046;53.254;5.900;2023-09-07T01:37:01;8.45;;;5.53;;
54139;SDS011;40046;53.254;5.900;2023-09-07T01:39:27;8.13;;;6.78;;
54139;SDS011;40046;53.254;5.900;2023-09-07T01:41:53;13.40;;;6.15;;
54139;SDS011;40046;53.254;5.900;2023-09-07T01:44:20;6.55;;;5.47;;
54139;SDS011;40046;53.254;5.900;2023-09-07T01:46:46;8.43;;;5.63;;
54139;SDS011;40046;53.254;5.900;2023-09-07T01:49:12;13.50;;;7.20;;
54139;SDS011;40046;53.254;5.900;2023-09-07T01:51:38;7.28;;;6.40;;
54139;SDS011;40046;53.254;5.900;2023-09-07T01:54:04;7.15;;;5.90;;
54139;SDS011;40046;53.254;5.900;2023-09-07T01:56:31;9.60;;;5.85;;
54139;SDS011;40046;53.254;5.900;2023-09-07T01:58:57;9.68;;;5.93;;
54139;SDS011;40046;53.254;5.900;2023-09-07T02:01:27;8.15;;;7.28;;
54139;SDS011;40046;53.254;5.900;2023-09-07T02:03:55;10.77;;;5.85;;
54139;SDS011;40046;53.254;5.900;2023-09-07T02:06:21;7.55;;;6.40;;
54139;SDS011;40046;53.254;5.900;2023-09-07T02:08:47;7.95;;;6.38;;
54139;SDS011;40046;53.254;5.900;2023-09-07T02:11:14;8.38;;;6.40;;
54139;SDS011;40046;53.254;5.900;2023-09-07T02:13:45;7.60;;;6.45;;
54139;SDS011;40046;53.254;5.900;2023-09-07T02:16:11;8.63;;;6.63;;
54139;SDS011;40046;53.254;5.900;2023-09-07T02:18:38;7.03;;;6.10;;
54139;SDS011;40046;53.254;5.900;2023-09-07T02:21:08;14.23;;;6.25;;
54139;SDS011;40046;53.254;5.900;2023-09-07T02:23:35;7.30;;;5.70;;
54139;SDS011;40046;53.254;5.900;2023-09-07T02:26:04;7.30;;;6.13;;
54139;SDS011;40046;53.254;5.900;2023-09-07T02:28:31;9.40;;;6.10;;
54139;SDS011;40046;53.254;5.900;2023-09-07T02:31:03;7.25;;;6.03;;
54139;SDS011;40046;53.254;5.900;2023-09-07T02:33:30;11.00;;;6.15;;
54139;SDS011;40046;53.254;5.900;2023-09-07T02:35:57;7.43;;;5.88;;
54139;SDS011;40046;53.254;5.900;2023-09-07T02:38:24;7.75;;;6.47;;
54139;SDS011;40046;53.254;5.900;2023-09-07T02:40:50;7.78;;;6.38;;
54139;SDS011;40046;53.254;5.900;2023-09-07T02:43:17;7.65;;;5.63;;
54139;SDS011;40046;53.254;5.900;2023-09-07T02:45:43;8.48;;;6.38;;
54139;SDS011;40046;53.254;5.900;2023-09-07T02:48:10;6.70;;;5.97;;
54139;SDS011;40046;53.254;5.900;2023-09-07T02:50:38;12.68;;;7.25;;
54139;SDS011;40046;53.254;5.900;2023-09-07T02:53:05;7.50;;;6.22;;
54139;SDS011;40046;53.254;5.900;2023-09-07T02:55:32;8.98;;;6.30;;
54139;SDS011;40046;53.254;5.900;2023-09-07T02:57:58;11.70;;;6.55;;
54139;SDS011;40046;53.254;5.900;2023-09-07T03:00:25;7.93;;;5.90;;
54139;SDS011;40046;53.254;5.900;2023-09-07T03:02:52;10.38;;;7.13;;
54139;SDS011;40046;53.254;5.900;2023-09-07T03:05:18;9.50;;;6.68;;
54139;SDS011;40046;53.254;5.900;2023-09-07T03:07:45;8.88;;;6.90;;
54139;SDS011;40046;53.254;5.900;2023-09-07T03:10:17;8.35;;;7.47;;
54139;SDS011;40046;53.254;5.900;2023-09-07T03:12:44;8.80;;;6.22;;
54139;SDS011;40046;53.254;5.900;2023-09-07T03:15:11;8.48;;;6.82;;
54139;SDS011;40046;53.254;5.900;2023-09-07T03:17:38;7.53;;;6.30;;
54139;SDS011;40046;53.254;5.900;2023-09-07T03:20:05;8.00;;;6.50;;
54139;SDS011;40046;53.254;5.900;2023-09-07T03:22:40;10.48;;;6.95;;
54139;SDS011;40046;53.254;5.900;2023-09-07T03:25:08;9.10;;;6.20;;
54139;SDS011;40046;53.254;5.900;2023-09-07T03:27:35;8.45;;;6.57;;
54139;SDS011;40046;53.254;5.900;2023-09-07T03:30:02;7.47;;;6.68;;
54139;SDS011;40046;53.254;5.900;2023-09-07T03:32:29;11.68;;;7.32;;
54139;SDS011;40046;53.254;5.900;2023-09-07T03:34:58;7.05;;;6.32;;
54139;SDS011;40046;53.254;5.900;2023-09-07T03:37:26;8.95;;;6.90;;
54139;SDS011;40046;53.254;5.900;2023-09-07T03:39:53;9.43;;;7.00;;
54139;SDS011;40046;53.254;5.900;2023-09-07T03:42:19;8.65;;;6.40;;
54139;SDS011;40046;53.254;5.900;2023-09-07T03:44:46;8.52;;;7.00;;
54139;SDS011;40046;53.254;5.900;2023-09-07T03:47:13;8.07;;;6.97;;
54139;SDS011;40046;53.254;5.900;2023-09-07T03:49:39;9.38;;;6.43;;
54139;SDS011;40046;53.254;5.900;2023-09-07T03:52:06;10.05;;;7.82;;
54139;SDS011;40046;53.254;5.900;2023-09-07T03:54:32;9.23;;;7.07;;
54139;SDS011;40046;53.254;5.900;2023-09-07T03:56:58;8.52;;;6.65;;
54139;SDS011;40046;53.254;5.900;2023-09-07T03:59:24;11.68;;;7.10;;
54139;SDS011;40046;53.254;5.900;2023-09-07T04:01:53;10.80;;;6.78;;
54139;SDS011;40046;53.254;5.900;2023-09-07T04:04:20;9.65;;;7.18;;
54139;SDS011;40046;53.254;5.900;2023-09-07T04:06:46;10.98;;;7.03;;
54139;SDS011;40046;53.254;5.900;2023-09-07T04:09:15;9.77;;;7.43;;
54139;SDS011;40046;53.254;5.900;2023-09-07T04:11:42;11.63;;;7.38;;
54139;SDS011;40046;53.254;5.900;2023-09-07T04:14:08;9.07;;;7.78;;
54139;SDS011;40046;53.254;5.900;2023-09-07T04:16:34;9.95;;;7.50;;
54139;SDS011;40046;53.254;5.900;2023-09-07T04:19:00;8.82;;;7.93;;
54139;SDS011;40046;53.254;5.900;2023-09-07T04:21:26;9.75;;;7.32;;
54139;SDS011;40046;53.254;5.900;2023-09-07T04:23:53;8.25;;;7.30;;
54139;SDS011;40046;53.254;5.900;2023-09-07T04:26:19;9.35;;;7.93;;
54139;SDS011;40046;53.254;5.900;2023-09-07T04:28:46;12.02;;;8.52;;
54139;SDS011;40046;53.254;5.900;2023-09-07T04:31:12;10.82;;;8.07;;
54139;SDS011;40046;53.254;5.900;2023-09-07T04:33:38;13.13;;;7.75;;
54139;SDS011;40046;53.254;5.900;2023-09-07T04:36:11;8.98;;;7.18;;
54139;SDS011;40046;53.254;5.900;2023-09-07T04:38:39;9.70;;;7.80;;
54139;SDS011;40046;53.254;5.900;2023-09-07T04:41:09;10.00;;;7.30;;
54139;SDS011;40046;53.254;5.900;2023-09-07T04:43:39;8.45;;;7.63;;
54139;SDS011;40046;53.254;5.900;2023-09-07T04:46:08;11.57;;;7.80;;
54139;SDS011;40046;53.254;5.900;2023-09-07T04:48:35;11.25;;;7.68;;
54139;SDS011;40046;53.254;5.900;2023-09-07T04:51:02;13.45;;;7.60;;
54139;SDS011;40046;53.254;5.900;2023-09-07T04:53:30;13.68;;;8.48;;
54139;SDS011;40046;53.254;5.900;2023-09-07T04:55:57;9.95;;;8.57;;
54139;SDS011;40046;53.254;5.900;2023-09-07T04:58:24;8.43;;;7.53;;
54139;SDS011;40046;53.254;5.900;2023-09-07T05:00:51;14.63;;;7.85;;
54139;SDS011;40046;53.254;5.900;2023-09-07T05:03:17;12.48;;;7.88;;
54139;SDS011;40046;53.254;5.900;2023-09-07T05:05:43;10.93;;;7.35;;
54139;SDS011;40046;53.254;5.900;2023-09-07T05:08:10;12.75;;;7.45;;
54139;SDS011;40046;53.254;5.900;2023-09-07T05:10:37;12.50;;;7.78;;
54139;SDS011;40046;53.254;5.900;2023-09-07T05:13:04;13.32;;;8.18;;
54139;SDS011;40046;53.254;5.900;2023-09-07T05:15:30;9.02;;;7.75;;
54139;SDS011;40046;53.254;5.900;2023-09-07T05:17:56;8.88;;;6.80;;
54139;SDS011;40046;53.254;5.900;2023-09-07T05:20:22;9.70;;;7.90;;
54139;SDS011;40046;53.254;5.900;2023-09-07T05:22:49;12.25;;;7.40;;
54139;SDS011;40046;53.254;5.900;2023-09-07T05:25:16;13.48;;;8.07;;
54139;SDS011;40046;53.254;5.900;2023-09-07T05:27:42;11.77;;;7.70;;
54139;SDS011;40046;53.254;5.900;2023-09-07T05:30:10;11.98;;;7.45;;
54139;SDS011;40046;53.254;5.900;2023-09-07T05:32:37;10.93;;;7.57;;
54139;SDS011;40046;53.254;5.900;2023-09-07T05:35:04;9.75;;;7.68;;
54139;SDS011;40046;53.254;5.900;2023-09-07T05:37:31;10.15;;;7.72;;
54139;SDS011;40046;53.254;5.900;2023-09-07T05:39:58;10.95;;;7.55;;
54139;SDS011;40046;53.254;5.900;2023-09-07T05:42:24;8.98;;;7.85;;
54139;SDS011;40046;53.254;5.900;2023-09-07T05:44:51;14.23;;;7.18;;
54139;SDS011;40046;53.254;5.900;2023-09-07T05:47:17;10.20;;;7.25;;
54139;SDS011;40046;53.254;5.900;2023-09-07T05:49:44;8.73;;;7.78;;
54139;SDS011;40046;53.254;5.900;2023-09-07T05:52:10;13.20;;;8.15;;
54139;SDS011;40046;53.254;5.900;2023-09-07T05:54:36;10.27;;;7.72;;
54139;SDS011;40046;53.254;5.900;2023-09-07T05:57:02;9.80;;;7.07;;
54139;SDS011;40046;53.254;5.900;2023-09-07T05:59:28;8.50;;;7.28;;
54139;SDS011;40046;53.254;5.900;2023-09-07T06:01:54;9.02;;;7.50;;
54139;SDS011;40046;53.254;5.900;2023-09-07T06:04:21;9.57;;;7.50;;
54139;SDS011;40046;53.254;5.900;2023-09-07T06:06:47;8.48;;;7.00;;
54139;SDS011;40046;53.254;5.900;2023-09-07T06:09:13;9.25;;;7.10;;
54139;SDS011;40046;53.254;5.900;2023-09-07T06:11:39;9.80;;;7.30;;
54139;SDS011;40046;53.254;5.900;2023-09-07T06:14:07;11.05;;;6.78;;
54139;SDS011;40046;53.254;5.900;2023-09-07T06:16:33;12.10;;;7.03;;
54139;SDS011;40046;53.254;5.900;2023-09-07T06:19:00;9.05;;;7.35;;
54139;SDS011;40046;53.254;5.900;2023-09-07T06:21:26;10.25;;;6.90;;
54139;SDS011;40046;53.254;5.900;2023-09-07T06:23:53;7.13;;;6.43;;
54139;SDS011;40046;53.254;5.900;2023-09-07T06:26:19;12.68;;;8.77;;
54139;SDS011;40046;53.254;5.900;2023-09-07T06:28:45;10.07;;;7.35;;
54139;SDS011;40046;53.254;5.900;2023-09-07T06:31:11;7.20;;;6.50;;
54139;SDS011;40046;53.254;5.900;2023-09-07T06:33:38;7.95;;;7.00;;
54139;SDS011;40046;53.254;5.900;2023-09-07T06:36:04;10.00;;;7.03;;
54139;SDS011;40046;53.254;5.900;2023-09-07T06:38:31;9.82;;;8.82;;
54139;SDS011;40046;53.254;5.900;2023-09-07T06:40:57;11.52;;;7.50;;
54139;SDS011;40046;53.254;5.900;2023-09-07T06:43:23;11.15;;;8.20;;
54139;SDS011;40046;53.254;5.900;2023-09-07T06:45:51;11.50;;;7.60;;
54139;SDS011;40046;53.254;5.900;2023-09-07T06:48:17;11.43;;;7.93;;
54139;SDS011;40046;53.254;5.900;2023-09-07T06:50:43;8.60;;;7.70;;
54139;SDS011;40046;53.254;5.900;2023-09-07T06:53:10;11.65;;;7.57;;
54139;SDS011;40046;53.254;5.900;2023-09-07T06:55:37;9.43;;;7.28;;
54139;SDS011;40046;53.254;5.900;2023-09-07T06:58:03;9.55;;;6.85;;
54139;SDS011;40046;53.254;5.900;2023-09-07T07:00:30;9.60;;;7.53;;
54139;SDS011;40046;53.254;5.900;2023-09-07T07:02:56;12.48;;;7.88;;
54139;SDS011;40046;53.254;5.900;2023-09-07T07:05:23;9.98;;;7.47;;
54139;SDS011;40046;53.254;5.900;2023-09-07T07:07:52;10.90;;;7.65;;
54139;SDS011;40046;53.254;5.900;2023-09-07T07:10:18;11.18;;;6.93;;
54139;SDS011;40046;53.254;5.900;2023-09-07T07:12:44;9.73;;;8.18;;
54139;SDS011;40046;53.254;5.900;2023-09-07T07:15:10;12.45;;;7.07;;
54139;SDS011;40046;53.254;5.900;2023-09-07T07:17:37;10.05;;;7.28;;
54139;SDS011;40046;53.254;5.900;2023-09-07T07:20:03;10.63;;;7.70;;
54139;SDS011;40046;53.254;5.900;2023-09-07T07:22:30;9.63;;;7.65;;
54139;SDS011;40046;53.254;5.900;2023-09-07T07:25:00;7.95;;;6.93;;
54139;SDS011;40046;53.254;5.900;2023-09-07T07:27:31;8.82;;;7.10;;
54139;SDS011;40046;53.254;5.900;2023-09-07T07:29:57;11.30;;;7.80;;
54139;SDS011;40046;53.254;5.900;2023-09-07T07:32:24;18.70;;;7.28;;
54139;SDS011;40046;53.254;5.900;2023-09-07T07:34:50;9.73;;;6.88;;
54139;SDS011;40046;53.254;5.900;2023-09-07T07:37:17;8.60;;;7.00;;
54139;SDS011;40046;53.254;5.900;2023-09-07T07:39:47;7.85;;;6.30;;
54139;SDS011;40046;53.254;5.900;2023-09-07T07:42:14;8.15;;;7.35;;
54139;SDS011;40046;53.254;5.900;2023-09-07T07:44:41;9.90;;;6.53;;
54139;SDS011;40046;53.254;5.900;2023-09-07T07:47:07;7.22;;;5.90;;
54139;SDS011;40046;53.254;5.900;2023-09-07T07:49:33;9.65;;;6.40;;
54139;SDS011;40046;53.254;5.900;2023-09-07T07:52:01;10.68;;;6.47;;
54139;SDS011;40046;53.254;5.900;2023-09-07T07:54:27;8.07;;;6.57;;
54139;SDS011;40046;53.254;5.900;2023-09-07T07:56:55;6.97;;;5.43;;
54139;SDS011;40046;53.254;5.900;2023-09-07T07:59:22;9.25;;;5.60;;
54139;SDS011;40046;53.254;5.900;2023-09-07T08:01:48;10.40;;;5.07;;
54139;SDS011;40046;53.254;5.900;2023-09-07T08:04:15;7.78;;;5.72;;
54139;SDS011;40046;53.254;5.900;2023-09-07T08:06:41;6.85;;;5.82;;
54139;SDS011;40046;53.254;5.900;2023-09-07T08:09:07;14.23;;;5.60;;
54139;SDS011;40046;53.254;5.900;2023-09-07T08:11:34;7.05;;;5.97;;
54139;SDS011;40046;53.254;5.900;2023-09-07T08:14:00;7.10;;;5.72;;
54139;SDS011;40046;53.254;5.900;2023-09-07T08:16:27;8.95;;;5.43;;
54139;SDS011;40046;53.254;5.900;2023-09-07T08:18:53;7.85;;;5.07;;
54139;SDS011;40046;53.254;5.900;2023-09-07T08:21:20;10.40;;;5.88;;
54139;SDS011;40046;53.254;5.900;2023-09-07T08:23:46;7.20;;;4.70;;
54139;SDS011;40046;53.254;5.900;2023-09-07T08:26:14;8.05;;;4.88;;
54139;SDS011;40046;53.254;5.900;2023-09-07T08:28:42;6.15;;;4.30;;
54139;SDS011;40046;53.254;5.900;2023-09-07T08:31:11;10.48;;;4.55;;
54139;SDS011;40046;53.254;5.900;2023-09-07T08:33:39;6.68;;;5.07;;
54139;SDS011;40046;53.254;5.900;2023-09-07T08:36:05;10.68;;;4.75;;
54139;SDS011;40046;53.254;5.900;2023-09-07T08:38:33;8.75;;;4.85;;
54139;SDS011;40046;53.254;5.900;2023-09-07T08:41:02;8.55;;;4.82;;
54139;SDS011;40046;53.254;5.900;2023-09-07T08:43:35;7.70;;;4.40;;
54139;SDS011;40046;53.254;5.900;2023-09-07T08:46:15;10.88;;;4.60;;
54139;SDS011;40046;53.254;5.900;2023-09-07T08:48:43;9.27;;;4.10;;
54139;SDS011;40046;53.254;5.900;2023-09-07T08:51:11;6.40;;;4.35;;
54139;SDS011;40046;53.254;5.900;2023-09-07T08:53:39;6.10;;;3.92;;
54139;SDS011;40046;53.254;5.900;2023-09-07T08:56:06;8.27;;;3.90;;
54139;SDS011;40046;53.254;5.900;2023-09-07T08:58:35;10.45;;;4.40;;
54139;SDS011;40046;53.254;5.900;2023-09-07T09:01:01;7.93;;;4.55;;
54139;SDS011;40046;53.254;5.900;2023-09-07T09:03:28;6.45;;;3.90;;
54139;SDS011;40046;53.254;5.900;2023-09-07T09:05:56;8.68;;;4.63;;
54139;SDS011;40046;53.254;5.900;2023-09-07T09:08:22;6.13;;;4.38;;
54139;SDS011;40046;53.254;5.900;2023-09-07T09:10:59;6.85;;;4.43;;
54139;SDS011;40046;53.254;5.900;2023-09-07T09:13:29;5.65;;;3.67;;
54139;SDS011;40046;53.254;5.900;2023-09-07T09:15:55;5.15;;;3.72;;
54139;SDS011;40046;53.254;5.900;2023-09-07T09:18:21;5.35;;;4.00;;
54139;SDS011;40046;53.254;5.900;2023-09-07T09:20:48;6.47;;;3.70;;
54139;SDS011;40046;53.254;5.900;2023-09-07T09:23:14;6.93;;;4.00;;
54139;SDS011;40046;53.254;5.900;2023-09-07T09:25:40;5.18;;;3.90;;
54139;SDS011;40046;53.254;5.900;2023-09-07T09:28:08;6.18;;;4.38;;
54139;SDS011;40046;53.254;5.900;2023-09-07T09:30:36;3.92;;;3.22;;
54139;SDS011;40046;53.254;5.900;2023-09-07T09:33:02;6.05;;;3.55;;
54139;SDS011;40046;53.254;5.900;2023-09-07T09:35:31;9.75;;;3.83;;
54139;SDS011;40046;53.254;5.900;2023-09-07T09:38:00;9.10;;;4.10;;
54139;SDS011;40046;53.254;5.900;2023-09-07T09:40:33;8.15;;;3.88;;
54139;SDS011;40046;53.254;5.900;2023-09-07T09:43:03;5.32;;;3.58;;
54139;SDS011;40046;53.254;5.900;2023-09-07T09:45:29;6.75;;;3.78;;
54139;SDS011;40046;53.254;5.900;2023-09-07T09:47:56;6.82;;;3.72;;
54139;SDS011;40046;53.254;5.900;2023-09-07T09:50:27;5.80;;;4.03;;
54139;SDS011;40046;53.254;5.900;2023-09-07T09:52:53;7.80;;;4.10;;
54139;SDS011;40046;53.254;5.900;2023-09-07T09:55:19;6.00;;;3.65;;
54139;SDS011;40046;53.254;5.900;2023-09-07T09:57:45;6.55;;;4.00;;
54139;SDS011;40046;53.254;5.900;2023-09-07T10:00:12;8.52;;;3.78;;
54139;SDS011;40046;53.254;5.900;2023-09-07T10:05:55;8.10;;;4.18;;
54139;SDS011;40046;53.254;5.900;2023-09-07T10:08:21;7.53;;;3.60;;
54139;SDS011;40046;53.254;5.900;2023-09-07T10:10:48;6.68;;;3.45;;
54139;SDS011;40046;53.254;5.900;2023-09-07T10:13:16;7.40;;;3.60;;
54139;SDS011;40046;53.254;5.900;2023-09-07T10:15:42;6.47;;;3.55;;
54139;SDS011;40046;53.254;5.900;2023-09-07T10:18:09;5.38;;;3.85;;
54139;SDS011;40046;53.254;5.900;2023-09-07T10:23:22;5.30;;;3.85;;
54139;SDS011;40046;53.254;5.900;2023-09-07T10:25:49;7.10;;;4.10;;
54139;SDS011;40046;53.254;5.900;2023-09-07T10:28:22;5.85;;;3.78;;
54139;SDS011;40046;53.254;5.900;2023-09-07T10:31:12;6.05;;;4.18;;
54139;SDS011;40046;53.254;5.900;2023-09-07T10:33:38;7.93;;;3.78;;
54139;SDS011;40046;53.254;5.900;2023-09-07T10:36:05;12.43;;;4.00;;
54139;SDS011;40046;53.254;5.900;2023-09-07T10:38:35;5.05;;;3.25;;
54139;SDS011;40046;53.254;5.900;2023-09-07T10:41:04;5.03;;;3.35;;
54139;SDS011;40046;53.254;5.900;2023-09-07T10:43:31;5.97;;;3.83;;
54139;SDS011;40046;53.254;5.900;2023-09-07T10:45:58;7.60;;;3.90;;
54139;SDS011;40046;53.254;5.900;2023-09-07T10:48:25;7.40;;;4.00;;
54139;SDS011;40046;53.254;5.900;2023-09-07T10:50:51;7.40;;;3.42;;
54139;SDS011;40046;53.254;5.900;2023-09-07T10:53:25;6.63;;;3.13;;
54139;SDS011;40046;53.254;5.900;2023-09-07T10:55:52;4.97;;;3.58;;
54139;SDS011;40046;53.254;5.900;2023-09-07T10:58:26;5.53;;;4.00;;
54139;SDS011;40046;53.254;5.900;2023-09-07T11:00:53;6.03;;;4.03;;
54139;SDS011;40046;53.254;5.900;2023-09-07T11:03:19;9.65;;;3.60;;
54139;SDS011;40046;53.254;5.900;2023-09-07T11:05:46;6.88;;;3.53;;
54139;SDS011;40046;53.254;5.900;2023-09-07T11:08:12;6.25;;;3.80;;
54139;SDS011;40046;53.254;5.900;2023-09-07T11:10:38;5.15;;;3.00;;
54139;SDS011;40046;53.254;5.900;2023-09-07T11:13:04;7.00;;;4.03;;
54139;SDS011;40046;53.254;5.900;2023-09-07T11:15:32;5.70;;;3.72;;
54139;SDS011;40046;53.254;5.900;2023-09-07T11:18:07;6.95;;;3.70;;
54139;SDS011;40046;53.254;5.900;2023-09-07T11:20:37;6.35;;;3.28;;
54139;SDS011;40046;53.254;5.900;2023-09-07T11:23:06;6.75;;;3.53;;
54139;SDS011;40046;53.254;5.900;2023-09-07T11:25:34;9.10;;;3.42;;
54139;SDS011;40046;53.254;5.900;2023-09-07T11:28:01;7.30;;;3.38;;
54139;SDS011;40046;53.254;5.900;2023-09-07T11:30:28;8.45;;;3.70;;
54139;SDS011;40046;53.254;5.900;2023-09-07T11:33:05;9.60;;;4.07;;
54139;SDS011;40046;53.254;5.900;2023-09-07T11:35:32;9.55;;;3.33;;
54139;SDS011;40046;53.254;5.900;2023-09-07T11:38:02;5.53;;;3.65;;
54139;SDS011;40046;53.254;5.900;2023-09-07T11:40:30;8.07;;;3.92;;
54139;SDS011;40046;53.254;5.900;2023-09-07T11:42:56;4.40;;;3.17;;
54139;SDS011;40046;53.254;5.900;2023-09-07T11:45:23;5.38;;;3.45;;
54139;SDS011;40046;53.254;5.900;2023-09-07T11:47:49;5.63;;;3.33;;
54139;SDS011;40046;53.254;5.900;2023-09-07T11:50:16;9.82;;;3.75;;
54139;SDS011;40046;53.254;5.900;2023-09-07T11:52:43;8.98;;;4.18;;
54139;SDS011;40046;53.254;5.900;2023-09-07T11:55:10;6.10;;;3.72;;
54139;SDS011;40046;53.254;5.900;2023-09-07T11:57:36;5.50;;;4.10;;
54139;SDS011;40046;53.254;5.900;2023-09-07T12:00:03;8.40;;;3.63;;
54139;SDS011;40046;53.254;5.900;2023-09-07T12:02:40;5.43;;;3.25;;
54139;SDS011;40046;53.254;5.900;2023-09-07T12:05:06;8.93;;;3.40;;
54139;SDS011;40046;53.254;5.900;2023-09-07T12:07:34;9.25;;;3.90;;
54139;SDS011;40046;53.254;5.900;2023-09-07T12:10:01;7.25;;;3.40;;
54139;SDS011;40046;53.254;5.900;2023-09-07T12:12:27;5.00;;;3.45;;
54139;SDS011;40046;53.254;5.900;2023-09-07T12:14:53;6.60;;;3.50;;
54139;SDS011;40046;53.254;5.900;2023-09-07T12:17:21;6.93;;;3.13;;
54139;SDS011;40046;53.254;5.900;2023-09-07T12:19:49;4.82;;;3.40;;
54139;SDS011;40046;53.254;5.900;2023-09-07T12:22:15;5.72;;;3.50;;
54139;SDS011;40046;53.254;5.900;2023-09-07T12:24:41;4.90;;;3.80;;
54139;SDS011;40046;53.254;5.900;2023-09-07T12:27:07;7.35;;;3.45;;
54139;SDS011;40046;53.254;5.900;2023-09-07T12:29:33;4.47;;;3.72;;
54139;SDS011;40046;53.254;5.900;2023-09-07T12:31:59;5.32;;;3.97;;
54139;SDS011;40046;53.254;5.900;2023-09-07T12:34:25;6.30;;;4.07;;
54139;SDS011;40046;53.254;5.900;2023-09-07T12:36:51;6.60;;;3.85;;
54139;SDS011;40046;53.254;5.900;2023-09-07T12:39:18;5.32;;;3.83;;
54139;SDS011;40046;53.254;5.900;2023-09-07T12:41:44;7.68;;;4.00;;
54139;SDS011;40046;53.254;5.900;2023-09-07T12:44:10;5.60;;;3.97;;
54139;SDS011;40046;53.254;5.900;2023-09-07T12:46:36;6.78;;;3.70;;
54139;SDS011;40046;53.254;5.900;2023-09-07T12:49:02;7.55;;;4.30;;
54139;SDS011;40046;53.254;5.900;2023-09-07T12:51:29;6.57;;;3.75;;
54139;SDS011;40046;53.254;5.900;2023-09-07T12:53:55;7.57;;;3.85;;
54139;SDS011;40046;53.254;5.900;2023-09-07T12:56:22;7.57;;;3.90;;
54139;SDS011;40046;53.254;5.900;2023-09-07T12:58:48;5.97;;;3.90;;
54139;SDS011;40046;53.254;5.900;2023-09-07T13:01:17;6.40;;;4.20;;
54139;SDS011;40046;53.254;5.900;2023-09-07T13:03:43;7.45;;;4.03;;
54139;SDS011;40046;53.254;5.900;2023-09-07T13:06:09;5.78;;;3.90;;
54139;SDS011;40046;53.254;5.900;2023-09-07T13:08:36;6.40;;;3.78;;
54139;SDS011;40046;53.254;5.900;2023-09-07T13:11:02;8.45;;;4.07;;
54139;SDS011;40046;53.254;5.900;2023-09-07T13:13:28;8.07;;;3.83;;
54139;SDS011;40046;53.254;5.900;2023-09-07T13:15:58;5.00;;;3.42;;
54139;SDS011;40046;53.254;5.900;2023-09-07T13:18:24;6.45;;;3.95;;
54139;SDS011;40046;53.254;5.900;2023-09-07T13:20:51;6.68;;;3.42;;
54139;SDS011;40046;53.254;5.900;2023-09-07T13:23:20;8.95;;;3.42;;
54139;SDS011;40046;53.254;5.900;2023-09-07T13:25:46;5.20;;;3.80;;
54139;SDS011;40046;53.254;5.900;2023-09-07T13:28:12;4.25;;;3.20;;
54139;SDS011;40046;53.254;5.900;2023-09-07T13:30:38;7.15;;;3.67;;
54139;SDS011;40046;53.254;5.900;2023-09-07T13:33:04;6.35;;;4.20;;
54139;SDS011;40046;53.254;5.900;2023-09-07T13:35:30;6.30;;;3.45;;
54139;SDS011;40046;53.254;5.900;2023-09-07T13:37:57;6.85;;;3.35;;
54139;SDS011;40046;53.254;5.900;2023-09-07T13:40:23;7.00;;;3.42;;
54139;SDS011;40046;53.254;5.900;2023-09-07T13:42:49;6.68;;;3.30;;
54139;SDS011;40046;53.254;5.900;2023-09-07T13:45:16;6.43;;;3.80;;
54139;SDS011;40046;53.254;5.900;2023-09-07T13:47:42;6.32;;;3.75;;
54139;SDS011;40046;53.254;5.900;2023-09-07T13:50:08;6.15;;;3.35;;
54139;SDS011;40046;53.254;5.900;2023-09-07T13:52:34;7.00;;;3.35;;
54139;SDS011;40046;53.254;5.900;2023-09-07T13:55:00;9.20;;;3.38;;
54139;SDS011;40046;53.254;5.900;2023-09-07T13:57:26;9.30;;;3.20;;
54139;SDS011;40046;53.254;5.900;2023-09-07T13:59:53;9.20;;;3.30;;
54139;SDS011;40046;53.254;5.900;2023-09-07T14:02:19;7.22;;;4.18;;
54139;SDS011;40046;53.254;5.900;2023-09-07T14:04:45;7.10;;;3.67;;
54139;SDS011;40046;53.254;5.900;2023-09-07T14:07:11;7.63;;;3.80;;
54139;SDS011;40046;53.254;5.900;2023-09-07T14:09:38;4.63;;;3.38;;
54139;SDS011;40046;53.254;5.900;2023-09-07T14:12:04;6.95;;;3.70;;
54139;SDS011;40046;53.254;5.900;2023-09-07T14:14:30;5.40;;;3.88;;
54139;SDS011;40046;53.254;5.900;2023-09-07T14:16:56;5.35;;;4.03;;
54139;SDS011;40046;53.254;5.900;2023-09-07T14:19:23;5.65;;;3.33;;
54139;SDS011;40046;53.254;5.900;2023-09-07T14:21:50;5.05;;;3.75;;
54139;SDS011;40046;53.254;5.900;2023-09-07T14:24:16;5.53;;;3.47;;
54139;SDS011;40046;53.254;5.900;2023-09-07T14:26:42;6.25;;;3.75;;
54139;SDS011;40046;53.254;5.900;2023-09-07T14:29:08;6.93;;;3.75;;
54139;SDS011;40046;53.254;5.900;2023-09-07T14:31:35;6.82;;;3.78;;
54139;SDS011;40046;53.254;5.900;2023-09-07T14:34:01;7.38;;;4.03;;
54139;SDS011;40046;53.254;5.900;2023-09-07T14:36:27;5.72;;;3.85;;
54139;SDS011;40046;53.254;5.900;2023-09-07T14:38:53;6.03;;;4.32;;
54139;SDS011;40046;53.254;5.900;2023-09-07T14:41:19;9.32;;;3.90;;
54139;SDS011;40046;53.254;5.900;2023-09-07T14:43:47;8.10;;;4.95;;
54139;SDS011;40046;53.254;5.900;2023-09-07T14:46:13;5.07;;;4.10;;
54139;SDS011;40046;53.254;5.900;2023-09-07T14:48:40;5.53;;;4.15;;
54139;SDS011;40046;53.254;5.900;2023-09-07T14:51:06;8.27;;;4.00;;
54139;SDS011;40046;53.254;5.900;2023-09-07T14:53:32;6.88;;;3.35;;